Time;durP1;ratioP1;P1;durP2;ratioP2;P2;SDS_P1;SDS_P2;PMS_P1;PMS_P2;Temp;Humidity;BMP_temperature;BMP_pressure;BME280_temperature;BME280_humidity;BME280_pressure;Samples;Min_cycle;Max_cycle;Signal;HPM_P1;HPM_P2
2022/10/06 00:01:15;;;;;;;8.60;7.90;;;;;;;8.90;100.00;97871.38;4927373;28;20244;-57
2022/10/06 00:03:44;;;;;;;8.03;7.23;;;;;;;8.84;100.00;97871.97;4855606;28;21829;-55
2022/10/06 00:06:16;;;;;;;7.83;7.23;;;;;;;8.82;100.00;97873.94;4930460;28;20865;-56
2022/10/06 00:08:45;;;;;;;8.87;7.70;;;;;;;8.92;100.00;97873.84;4927246;28;20438;-58
2022/10/06 00:11:16;;;;;;;8.63;7.77;;;;;;;8.90;100.00;97874.00;4906022;28;20499;-58
2022/10/06 00:13:44;;;;;;;8.13;7.37;;;;;;;8.86;100.00;97871.81;4927816;28;20205;-58
2022/10/06 00:16:16;;;;;;;10.93;8.20;;;;;;;8.88;100.00;97875.13;4930337;28;20605;-58
2022/10/06 00:18:44;;;;;;;8.13;7.30;;;;;;;8.89;100.00;97877.59;4885016;28;20302;-56
2022/10/06 00:21:14;;;;;;;7.87;7.17;;;;;;;8.84;100.00;97871.97;4930672;28;20360;-58
2022/10/06 00:23:43;;;;;;;10.70;7.97;;;;;;;8.88;100.00;97880.44;4926996;28;20288;-56
2022/10/06 00:26:15;;;;;;;8.80;8.17;;;;;;;8.78;100.00;97873.44;4905403;28;20608;-57
2022/10/06 00:28:46;;;;;;;7.83;7.23;;;;;;;8.87;100.00;97876.94;4926598;28;20709;-56
2022/10/06 00:31:14;;;;;;;11.87;8.87;;;;;;;8.97;100.00;97875.03;4928522;28;20226;-56
2022/10/06 00:33:43;;;;;;;8.53;7.67;;;;;;;9.04;100.00;97877.06;4886102;28;20327;-58
2022/10/06 00:36:11;;;;;;;9.07;8.23;;;;;;;9.03;100.00;97878.03;4926601;28;20621;-57
2022/10/06 00:38:41;;;;;;;9.87;8.23;;;;;;;8.96;100.00;97878.66;4930118;28;20204;-57
2022/10/06 00:41:11;;;;;;;9.10;8.30;;;;;;;8.92;100.00;97879.97;4906733;28;20413;-58
2022/10/06 00:43:46;;;;;;;11.40;8.57;;;;;;;8.83;100.00;97881.72;4930305;28;20213;-57
2022/10/06 00:46:19;;;;;;;8.43;7.70;;;;;;;8.76;100.00;97877.22;4927142;28;20202;-57
2022/10/06 00:48:52;;;;;;;9.00;8.13;;;;;;;8.72;100.00;97886.44;4927032;28;20478;-58
2022/10/06 00:51:20;;;;;;;8.30;7.33;;;;;;;8.74;100.00;97885.31;4897907;28;20416;-56
2022/10/06 00:53:50;;;;;;;9.70;8.80;;;;;;;8.58;100.00;97875.44;4930309;28;20405;-58
2022/10/06 00:56:19;;;;;;;9.20;8.30;;;;;;;8.58;100.00;97896.59;4928022;28;21037;-55
2022/10/06 00:58:48;;;;;;;13.23;9.03;;;;;;;8.65;100.00;97902.06;4906657;28;20209;-54
2022/10/06 01:01:19;;;;;;;9.33;8.50;;;;;;;8.66;100.00;97898.44;4926119;28;20416;-57
2022/10/06 01:03:51;;;;;;;9.67;8.77;;;;;;;8.49;100.00;97894.81;4928506;28;20689;-59
2022/10/06 01:06:19;;;;;;;9.47;8.53;;;;;;;8.55;100.00;97896.91;4871049;28;20210;-57
2022/10/06 01:08:48;;;;;;;9.63;8.83;;;;;;;8.44;100.00;97899.72;4927576;28;22292;-56
2022/10/06 01:11:17;;;;;;;9.00;8.20;;;;;;;8.39;100.00;97903.66;4928347;28;20221;-57
2022/10/06 01:13:46;;;;;;;9.40;8.63;;;;;;;8.45;100.00;97907.50;4903677;28;20392;-58
2022/10/06 01:16:20;;;;;;;9.80;8.77;;;;;;;8.38;100.00;97906.47;4929330;28;20712;-57
2022/10/06 01:18:48;;;;;;;10.40;9.40;;;;;;;8.40;100.00;97907.13;4925241;28;20237;-56
2022/10/06 01:21:23;;;;;;;9.87;8.07;;;;;;;8.48;100.00;97909.84;4880758;28;20317;-59
2022/10/06 01:23:54;;;;;;;10.07;8.97;;;;;;;8.46;100.00;97913.59;4928257;28;20436;-55
2022/10/06 01:26:23;;;;;;;10.10;9.07;;;;;;;8.46;100.00;97905.69;4929617;28;20206;-57
2022/10/06 01:28:52;;;;;;;10.07;9.17;;;;;;;8.39;100.00;97913.41;4904121;28;20592;-58
2022/10/06 01:31:21;;;;;;;13.93;9.77;;;;;;;8.33;100.00;97916.63;4930687;28;20202;-57
2022/10/06 01:33:52;;;;;;;10.37;8.83;;;;;;;8.28;100.00;97913.63;4926624;28;20983;-57
2022/10/06 01:36:20;;;;;;;9.53;8.77;;;;;;;8.28;100.00;97909.19;4880058;28;20229;-55
2022/10/06 01:38:48;;;;;;;9.47;7.87;;;;;;;8.27;100.00;97910.16;4926788;28;20407;-56
2022/10/06 01:41:18;;;;;;;10.60;9.67;;;;;;;8.28;100.00;97913.63;4926246;28;20264;-57
2022/10/06 01:43:46;;;;;;;10.97;9.43;;;;;;;8.29;100.00;97913.47;4903898;28;20213;-57
2022/10/06 01:46:15;;;;;;;10.07;9.17;;;;;;;8.28;100.00;97919.75;4929941;28;21727;-55
2022/10/06 01:48:43;;;;;;;10.23;9.20;;;;;;;8.29;100.00;97921.41;4925208;28;20622;-56
2022/10/06 01:51:14;;;;;;;10.13;9.30;;;;;;;8.34;100.00;97921.78;4884249;28;20237;-57
2022/10/06 01:53:43;;;;;;;9.70;8.83;;;;;;;8.35;100.00;97923.44;4874870;28;20304;-56
2022/10/06 01:56:11;;;;;;;10.03;9.20;;;;;;;8.32;100.00;97922.88;4928089;28;20371;-55
2022/10/06 01:58:41;;;;;;;10.90;9.90;;;;;;;8.27;100.00;97926.00;4906424;28;20218;-56
2022/10/06 02:01:10;;;;;;;10.20;9.40;;;;;;;8.26;100.00;97930.44;4927784;28;20234;-58
2022/10/06 02:03:39;;;;;;;10.37;9.27;;;;;;;8.27;100.00;97931.28;4907267;28;20644;-57
2022/10/06 02:06:09;;;;;;;10.23;9.27;;;;;;;8.32;100.00;97930.81;4927366;28;20198;-59
2022/10/06 02:08:37;;;;;;;10.50;9.53;;;;;;;8.25;100.00;97930.59;4929830;28;20213;-59
2022/10/06 02:11:08;;;;;;;13.07;9.80;;;;;;;8.27;100.00;97931.28;4886463;28;20864;-58
2022/10/06 02:13:36;;;;;;;9.93;8.97;;;;;;;8.31;100.00;97932.63;4929710;28;20539;-57
2022/10/06 02:16:07;;;;;;;10.17;9.20;;;;;;;8.33;100.00;97932.47;4925930;28;20206;-58
2022/10/06 02:18:36;;;;;;;9.90;9.00;;;;;;;8.30;100.00;97936.25;4905486;28;20858;-57
2022/10/06 02:21:05;;;;;;;9.90;9.00;;;;;;;8.27;100.00;97931.28;4925287;28;20860;-58
2022/10/06 02:23:33;;;;;;;9.20;8.50;;;;;;;8.21;100.00;97937.97;4931840;28;20202;-59
2022/10/06 02:26:03;;;;;;;10.57;9.57;;;;;;;8.26;100.00;97930.44;4883363;28;20535;-57
2022/10/06 02:28:31;;;;;;;10.67;9.67;;;;;;;8.22;100.00;97938.81;4930774;28;20596;-59
2022/10/06 02:31:02;;;;;;;11.07;10.00;;;;;;;8.17;100.00;97944.53;4930974;28;20839;-57
2022/10/06 02:33:32;;;;;;;10.67;9.97;;;;;;;8.10;100.00;97944.31;4909876;28;20251;-58
2022/10/06 02:36:00;;;;;;;10.00;9.00;;;;;;;8.13;100.00;97945.81;4928679;28;20352;-57
2022/10/06 02:38:29;;;;;;;10.43;9.37;;;;;;;8.07;100.00;97949.06;4931692;28;20839;-58
2022/10/06 02:40:58;;;;;;;9.67;8.80;;;;;;;8.04;100.00;97952.81;4885203;28;26314;-58
2022/10/06 02:43:30;;;;;;;10.03;9.13;;;;;;;7.97;100.00;97952.59;4930188;28;20848;-58
2022/10/06 02:46:01;;;;;;;9.97;9.03;;;;;;;8.04;100.00;97950.19;4929696;28;20325;-59
2022/10/06 02:48:32;;;;;;;9.97;9.10;;;;;;;7.97;100.00;97941.22;4910930;28;22280;-58
2022/10/06 02:51:01;;;;;;;9.80;8.93;;;;;;;8.02;100.00;97949.50;4929917;28;20245;-58
2022/10/06 02:53:29;;;;;;;12.33;8.70;;;;;;;8.01;100.00;97949.66;4934680;28;20220;-57
2022/10/06 02:55:59;;;;;;;11.20;9.20;;;;;;;8.02;100.00;97948.69;4882333;28;20676;-60
2022/10/06 02:58:29;;;;;;;10.63;9.83;;;;;;;8.02;100.00;97952.16;4932197;28;21010;-54
2022/10/06 03:01:02;;;;;;;9.37;8.50;;;;;;;8.01;100.00;97958.41;4929313;28;20313;-57
2022/10/06 03:03:31;;;;;;;9.87;8.97;;;;;;;8.12;100.00;97965.28;4936520;28;20224;-54
2022/10/06 03:06:01;;;;;;;12.87;10.13;;;;;;;8.09;100.00;97966.41;4906226;28;20210;-55
2022/10/06 03:08:29;;;;;;;10.63;9.70;;;;;;;8.06;100.00;97977.25;4934860;28;22245;-56
2022/10/06 03:11:02;;;;;;;11.03;9.93;;;;;;;8.15;100.00;97969.44;4903946;28;20435;-58
2022/10/06 03:13:31;;;;;;;11.63;9.97;;;;;;;8.10;100.00;97978.63;4885956;28;20589;-55
2022/10/06 03:15:59;;;;;;;11.23;10.23;;;;;;;8.15;100.00;97977.38;4929557;28;20780;-55
2022/10/06 03:18:29;;;;;;;12.60;11.60;;;;;;;8.08;100.00;97970.00;4929783;28;20838;-60
2022/10/06 03:21:01;;;;;;;11.27;10.37;;;;;;;8.04;100.00;97987.13;4894890;28;20241;-52
2022/10/06 03:23:30;;;;;;;14.60;11.53;;;;;;;8.10;100.00;97973.34;4930211;28;20698;-50
2022/10/06 03:25:58;;;;;;;11.00;9.90;;;;;;;8.13;100.00;97980.13;4927843;28;20888;-53
2022/10/06 03:28:26;;;;;;;11.60;10.57;;;;;;;8.16;100.00;97984.31;4882977;28;20226;-59
2022/10/06 03:31:01;;;;;;;11.20;9.63;;;;;;;8.18;100.00;97990.25;4923798;28;21282;-63
2022/10/06 03:33:30;;;;;;;11.03;10.23;;;;;;;8.09;100.00;97991.97;4915104;28;20225;-62
2022/10/06 03:36:01;;;;;;;11.07;9.90;;;;;;;8.00;100.00;97987.59;4904155;28;20798;-58
2022/10/06 03:38:30;;;;;;;10.60;9.80;;;;;;;7.92;100.00;98006.78;4929132;28;20241;-59
2022/10/06 03:41:03;;;;;;;10.97;10.00;;;;;;;7.91;100.00;97999.84;4928997;28;20590;-59
2022/10/06 03:43:31;;;;;;;11.33;10.23;;;;;;;7.88;100.00;98008.06;4884267;28;20829;-59
2022/10/06 03:46:00;;;;;;;11.67;10.70;;;;;;;7.87;100.00;98012.50;4928155;28;21188;-59
2022/10/06 03:48:29;;;;;;;11.60;10.47;;;;;;;7.86;100.00;98008.19;4931088;28;20400;-59
2022/10/06 03:51:01;;;;;;;11.27;10.37;;;;;;;7.90;100.00;98014.03;4904438;28;20349;-58
2022/10/06 03:53:30;;;;;;;10.83;9.73;;;;;;;7.77;100.00;98004.66;4931545;28;20220;-60
2022/10/06 03:56:03;;;;;;;10.67;9.67;;;;;;;7.73;100.00;98011.16;4926905;28;22449;-59
2022/10/06 03:58:33;;;;;;;10.10;9.20;;;;;;;7.68;100.00;98018.69;4883287;28;20718;-60
2022/10/06 04:01:02;;;;;;;10.97;10.07;;;;;;;7.72;100.00;98017.41;4873459;28;20240;-59
2022/10/06 04:03:30;;;;;;;10.87;9.97;;;;;;;7.73;100.00;98032.28;4929066;28;20214;-56
2022/10/06 04:06:00;;;;;;;11.87;10.87;;;;;;;7.75;100.00;98025.03;4929307;28;20206;-58
2022/10/06 04:08:31;;;;;;;11.10;10.10;;;;;;;7.76;100.00;98028.53;4926435;28;20822;-60
2022/10/06 04:11:06;;;;;;;10.53;9.73;;;;;;;7.75;100.00;98030.31;4904251;28;20567;-59
2022/10/06 04:13:34;;;;;;;11.17;10.17;;;;;;;7.75;100.00;98032.94;4903391;28;21182;-59
2022/10/06 04:16:10;;;;;;;11.53;10.53;;;;;;;7.78;100.00;98042.41;4866756;28;20206;-57
2022/10/06 04:18:38;;;;;;;11.33;10.33;;;;;;;7.78;100.00;98040.59;4930407;28;20272;-60
2022/10/06 04:21:07;;;;;;;11.53;10.43;;;;;;;7.72;100.00;98027.16;4928641;28;20400;-59
2022/10/06 04:23:36;;;;;;;11.10;10.10;;;;;;;7.74;100.00;98036.56;4933322;28;20212;-57
2022/10/06 04:26:08;;;;;;;11.33;10.43;;;;;;;7.80;100.00;98048.38;4929320;28;20209;-59
2022/10/06 04:28:37;;;;;;;11.77;10.80;;;;;;;7.82;100.00;98041.13;4931572;28;20218;-60
2022/10/06 04:31:08;;;;;;;11.33;10.43;;;;;;;7.87;100.00;98041.53;4861169;28;20666;-59
2022/10/06 04:33:36;;;;;;;12.77;11.60;;;;;;;7.88;100.00;98047.66;4932040;28;20220;-60
2022/10/06 04:36:06;;;;;;;11.70;10.70;;;;;;;7.85;100.00;98051.38;4929810;28;20213;-59
2022/10/06 04:38:36;;;;;;;11.90;10.93;;;;;;;7.82;100.00;98055.16;4911893;28;20401;-58
2022/10/06 04:41:07;;;;;;;11.80;10.67;;;;;;;7.76;100.00;98061.00;4928122;28;20221;-59
2022/10/06 04:43:35;;;;;;;11.87;10.27;;;;;;;7.76;100.00;98061.00;4931394;28;20689;-60
2022/10/06 04:46:04;;;;;;;12.43;11.20;;;;;;;7.74;100.00;98064.78;4906939;28;20210;-57
2022/10/06 04:48:53;;;;;;;11.53;10.63;;;;;;;7.74;100.00;98073.50;4892062;28;20211;-59
2022/10/06 04:51:22;;;;;;;12.17;11.07;;;;;;;7.76;100.00;98079.47;4930155;28;20312;-60
2022/10/06 04:53:52;;;;;;;12.43;11.20;;;;;;;7.76;100.00;98073.38;4907685;28;20870;-60
2022/10/06 04:56:22;;;;;;;11.70;10.73;;;;;;;7.75;100.00;98083.06;4928208;28;20220;-59
2022/10/06 04:58:52;;;;;;;11.90;10.80;;;;;;;7.88;100.00;98088.03;4929185;28;20236;-58
2022/10/06 05:01:21;;;;;;;12.93;11.47;;;;;;;7.84;100.00;98085.84;4902975;28;20222;-58
2022/10/06 05:03:51;;;;;;;12.20;10.93;;;;;;;7.86;100.00;98087.34;4882014;28;20451;-58
2022/10/06 05:06:22;;;;;;;12.43;11.43;;;;;;;7.84;100.00;98096.41;4928186;28;20240;-58
2022/10/06 05:08:52;;;;;;;13.30;12.17;;;;;;;7.82;100.00;98097.38;4926709;28;20213;-58
2022/10/06 05:11:22;;;;;;;12.07;10.87;;;;;;;7.79;100.00;98110.00;4929015;28;20344;-59
2022/10/06 05:13:53;;;;;;;13.07;11.97;;;;;;;7.81;100.00;98108.06;4900124;28;20657;-57
2022/10/06 05:16:23;;;;;;;13.00;11.80;;;;;;;7.77;100.00;98110.19;4905264;28;20848;-59
2022/10/06 05:18:51;;;;;;;12.60;11.63;;;;;;;7.80;100.00;98106.41;4882495;28;20597;-57
2022/10/06 05:21:21;;;;;;;12.17;11.17;;;;;;;7.77;100.00;98118.09;4928691;28;20259;-52
2022/10/06 05:23:51;;;;;;;11.83;10.90;;;;;;;7.74;100.00;98105.16;4899702;28;20321;-51
2022/10/06 05:26:20;;;;;;;12.97;11.80;;;;;;;7.77;100.00;98117.25;4930175;28;20228;-53
2022/10/06 05:28:49;;;;;;;12.93;11.83;;;;;;;7.88;100.00;98122.34;4901452;28;20216;-52
2022/10/06 05:31:19;;;;;;;15.83;12.17;;;;;;;8.01;100.00;98127.31;4901301;28;20768;-53
2022/10/06 05:33:47;;;;;;;14.13;12.93;;;;;;;8.04;100.00;98121.72;4856148;28;20213;-54
2022/10/06 05:36:17;;;;;;;12.77;11.53;;;;;;;8.18;100.00;98135.47;4898679;28;20487;-48
2022/10/06 05:38:46;;;;;;;12.57;11.30;;;;;;;8.21;100.00;98130.69;4925997;28;20309;-57
2022/10/06 05:41:17;;;;;;;12.43;11.33;;;;;;;8.31;100.00;98133.31;4927661;28;20372;-58
2022/10/06 05:43:46;;;;;;;11.70;10.67;;;;;;;8.38;100.00;98137.00;4902581;28;20378;-58
2022/10/06 05:46:18;;;;;;;11.63;10.63;;;;;;;8.43;100.00;98135.75;4928594;28;20711;-59
2022/10/06 05:48:46;;;;;;;11.87;10.87;;;;;;;8.44;100.00;98140.91;4876654;28;20361;-58
2022/10/06 05:51:15;;;;;;;11.73;10.60;;;;;;;8.37;100.00;98143.28;4896845;28;20586;-57
2022/10/06 05:53:44;;;;;;;18.50;11.33;;;;;;;8.22;100.00;98137.63;4928688;28;20561;-58
2022/10/06 05:56:13;;;;;;;11.97;11.07;;;;;;;8.24;100.00;98154.16;4928174;28;20972;-57
2022/10/06 05:58:44;;;;;;;11.90;11.00;;;;;;;8.25;100.00;98157.66;4905584;28;20225;-60
2022/10/06 06:01:14;;;;;;;12.37;10.93;;;;;;;8.26;100.00;98141.66;4933078;28;20553;-59
2022/10/06 06:03:49;;;;;;;12.30;11.20;;;;;;;8.42;100.00;98161.34;4908500;28;20982;-58
2022/10/06 06:06:19;;;;;;;13.30;12.10;;;;;;;8.51;100.00;98162.28;4866339;28;20217;-58
2022/10/06 06:08:48;;;;;;;15.37;12.33;;;;;;;8.69;100.00;98164.97;4876811;28;20746;-58
2022/10/06 06:11:16;;;;;;;12.80;11.53;;;;;;;8.79;100.00;98165.75;4929802;28;20330;-59
2022/10/06 06:13:46;;;;;;;13.57;12.10;;;;;;;8.92;100.00;98170.69;4932183;28;20316;-58
2022/10/06 06:16:14;;;;;;;12.77;11.57;;;;;;;9.00;100.00;98175.22;4930964;28;20837;-56
2022/10/06 06:18:43;;;;;;;13.20;11.27;;;;;;;9.02;100.00;98167.97;4931094;28;20718;-58
2022/10/06 06:21:11;;;;;;;13.03;11.67;;;;;;;9.05;100.00;98183.53;4929025;28;20464;-59
2022/10/06 06:23:41;;;;;;;12.57;11.17;;;;;;;9.06;100.00;98182.53;4883908;28;20678;-58
2022/10/06 06:26:11;;;;;;;11.63;10.60;;;;;;;9.10;100.00;98189.22;4927707;28;20240;-57
2022/10/06 06:28:40;;;;;;;11.40;10.43;;;;;;;9.12;100.00;98197.00;4931223;28;20695;-60
2022/10/06 06:31:11;;;;;;;11.30;10.40;;;;;;;9.12;100.00;98204.91;4936105;28;20236;-59
2022/10/06 06:33:46;;;;;;;11.70;10.63;;;;;;;9.16;100.00;98203.63;4932484;28;20210;-61
2022/10/06 06:36:16;;;;;;;11.50;10.50;;;;;;;9.36;100.00;98211.44;4930747;28;20197;-59
2022/10/06 06:38:48;;;;;;;12.00;11.00;;;;;;;9.66;100.00;98217.31;4888378;28;20213;-58
2022/10/06 06:41:18;;;;;;;11.67;10.77;;;;;;;9.80;100.00;98224.72;4928555;28;20301;-58
2022/10/06 06:43:46;;;;;;;13.23;12.03;;;;;;;9.77;100.00;98230.31;4932547;28;20224;-60
2022/10/06 06:46:17;;;;;;;11.10;10.27;;;;;;;9.81;100.00;98238.75;4933392;28;20605;-59
2022/10/06 06:48:46;;;;;;;12.40;11.20;;;;;;;9.96;100.00;98244.34;4931358;28;21099;-60
2022/10/06 06:51:14;;;;;;;10.53;9.57;;;;;;;10.08;100.00;98234.34;4931423;28;20431;-58
2022/10/06 06:53:42;;;;;;;11.87;10.07;;;;;;;10.45;100.00;98243.88;4932517;28;20256;-58
2022/10/06 06:56:10;;;;;;;11.20;10.03;;;;;;;10.63;100.00;98237.69;4882853;28;20306;-59
2022/10/06 06:58:40;;;;;;;12.13;9.37;;;;;;;10.89;100.00;98247.41;4932074;28;20464;-59
2022/10/06 07:01:12;;;;;;;9.73;8.90;;;;;;;10.96;100.00;98246.59;4926698;28;20249;-56
2022/10/06 07:03:42;;;;;;;9.33;8.53;;;;;;;11.10;100.00;98252.28;4934452;28;20212;-59
2022/10/06 07:06:28;;;;;;;9.33;8.40;;;;;;;11.07;100.00;98257.91;4930237;28;20221;-60
2022/10/06 07:08:57;;;;;;;9.07;8.27;;;;;;;11.11;100.00;98268.03;4912988;28;20321;-58
2022/10/06 07:11:26;;;;;;;10.23;8.60;;;;;;;11.29;100.00;98272.38;4912592;28;20300;-61
2022/10/06 07:13:56;;;;;;;8.53;7.80;;;;;;;11.33;100.00;98268.41;4930601;28;20209;-59
2022/10/06 07:27:32;;;;;;;10.10;8.73;;;;;;;11.92;100.00;98279.94;4926505;28;20217;-59
2022/10/06 07:30:00;;;;;;;7.53;6.93;;;;;;;11.96;100.00;98283.97;4928546;28;20233;-60
2022/10/06 07:32:30;;;;;;;8.20;7.20;;;;;;;11.92;100.00;98275.47;4930851;28;20222;-59
2022/10/06 07:34:59;;;;;;;8.10;7.30;;;;;;;12.06;100.00;98278.50;4929153;28;20207;-57
2022/10/06 07:37:28;;;;;;;8.53;7.80;;;;;;;12.10;100.00;98275.34;4930387;28;20534;-59
2022/10/06 07:39:57;;;;;;;7.97;7.30;;;;;;;12.17;100.00;98280.81;4912493;28;20240;-59
2022/10/06 07:42:25;;;;;;;8.20;7.40;;;;;;;12.34;100.00;98286.97;4912250;28;20242;-58
2022/10/06 07:47:39;;;;;;;7.37;6.77;;;;;;;12.52;100.00;98278.78;4929405;28;20206;-60
2022/10/06 07:50:11;;;;;;;6.70;6.10;;;;;;;12.56;100.00;98280.09;4929514;28;20460;-59
2022/10/06 07:52:40;;;;;;;7.03;6.47;;;;;;;12.41;100.00;98272.00;4930367;28;20589;-57
2022/10/06 07:55:08;;;;;;;8.20;7.50;;;;;;;12.55;100.00;98274.94;4928049;28;20401;-60
2022/10/06 07:57:36;;;;;;;6.57;6.07;;;;;;;12.93;100.00;98274.34;4887654;28;20226;-60
2022/10/06 08:00:06;;;;;;;8.13;6.43;;;;;;;13.15;100.00;98278.88;4927008;28;20751;-59
2022/10/06 08:02:34;;;;;;;9.43;8.47;;;;;;;13.28;100.00;98281.00;4930955;28;20521;-58
2022/10/06 08:05:03;;;;;;;8.60;7.80;;;;;;;13.25;100.00;98284.00;4927619;28;20554;-60
2022/10/06 08:07:33;;;;;;;9.20;8.33;;;;;;;13.48;100.00;98282.41;4929854;28;20198;-59
2022/10/06 08:10:01;;;;;;;8.50;7.77;;;;;;;13.64;100.00;98274.34;4928784;28;20586;-59
2022/10/06 08:12:32;;;;;;;7.73;7.10;;;;;;;13.73;100.00;98285.75;4886606;28;20501;-59
2022/10/06 08:15:02;;;;;;;7.83;6.73;;;;;;;13.76;100.00;98290.72;4879456;28;21172;-57
2022/10/06 08:17:35;;;;;;;6.97;6.43;;;;;;;13.92;100.00;98294.28;4916941;28;20218;-61
2022/10/06 08:20:04;;;;;;;7.80;5.80;;;;;;;13.93;100.00;98290.59;4930827;28;20252;-57
2022/10/06 08:22:35;;;;;;;5.67;5.30;;;;;;;13.94;100.00;98298.41;4905615;28;20744;-57
2022/10/06 08:25:03;;;;;;;6.90;5.67;;;;;;;14.12;100.00;98294.63;4932247;28;20288;-56
2022/10/06 08:27:34;;;;;;;6.77;6.03;;;;;;;14.03;100.00;98286.69;4927204;28;20693;-56
2022/10/06 08:30:02;;;;;;;10.30;9.27;;;;;;;14.06;100.00;98298.81;4892543;28;20317;-54
2022/10/06 08:32:31;;;;;;;9.00;8.20;;;;;;;13.80;100.00;98296.53;4928576;28;21751;-57
2022/10/06 08:34:59;;;;;;;9.77;8.77;;;;;;;13.45;100.00;98292.41;4931228;28;20516;-59
2022/10/06 08:37:27;;;;;;;6.07;5.47;;;;;;;13.43;100.00;98298.91;4910390;28;20213;-58
2022/10/06 08:39:57;;;;;;;7.33;6.83;;;;;;;13.66;100.00;98300.78;4930461;28;20233;-60
2022/10/06 08:42:31;;;;;;;6.77;5.87;;;;;;;14.02;100.00;98303.69;4930271;28;20752;-58
2022/10/06 08:45:02;;;;;;;7.03;6.33;;;;;;;14.40;100.00;98310.84;4929655;28;20208;-60
2022/10/06 08:47:34;;;;;;;6.67;6.07;;;;;;;14.50;100.00;98307.09;4885901;28;20409;-59
2022/10/06 08:50:04;;;;;;;7.80;5.97;;;;;;;14.71;100.00;98307.25;4932529;28;20240;-61
2022/10/06 08:52:44;;;;;;;6.50;6.00;;;;;;;14.83;100.00;98296.13;4904873;28;20860;-58
2022/10/06 08:55:23;;;;;;;8.80;6.40;;;;;;;15.15;100.00;98310.09;4932058;28;20229;-60
2022/10/06 08:58:17;;;;;;;6.83;6.23;;;;;;;15.18;100.00;98294.56;4930926;28;20949;-60
2022/10/06 09:00:45;;;;;;;8.57;6.77;;;;;;;15.59;100.00;98316.38;4928918;28;20229;-59
2022/10/06 09:03:19;;;;;;;8.50;6.20;;;;;;;16.04;100.00;98317.06;4889830;28;20218;-58
2022/10/06 09:05:47;;;;;;;5.67;5.27;;;;;;;15.95;100.00;98315.56;4931004;28;20220;-60
2022/10/06 09:08:28;;;;;;;6.17;5.60;;;;;;;16.01;100.00;98303.25;4923987;28;20930;-58
2022/10/06 09:11:08;;;;;;;6.43;5.67;;;;;;;16.26;100.00;98313.56;4930685;28;20745;-56
2022/10/06 09:13:39;;;;;;;6.00;5.40;;;;;;;16.57;100.00;98307.00;4928890;28;20228;-61
2022/10/06 09:16:09;;;;;;;6.53;5.83;;;;;;;16.73;100.00;98305.88;4931695;28;20516;-60
2022/10/06 09:18:40;;;;;;;9.23;8.40;;;;;;;17.02;99.14;98309.34;4894452;28;20624;-60
2022/10/06 09:21:33;;;;;;;6.33;5.57;;;;;;;17.12;97.39;98304.47;4927154;28;21039;-59
2022/10/06 09:24:06;;;;;;;5.00;4.50;;;;;;;17.24;95.38;98303.91;4910481;28;20213;-59
2022/10/06 09:26:36;;;;;;;5.70;5.30;;;;;;;17.52;93.98;98300.31;4927373;28;20554;-60
2022/10/06 09:29:04;;;;;;;5.30;4.80;;;;;;;17.75;92.02;98302.63;4932020;28;20226;-60
2022/10/06 09:31:38;;;;;;;5.23;4.73;;;;;;;17.88;90.24;98299.97;4926356;28;20336;-59
2022/10/06 09:34:16;;;;;;;5.23;4.73;;;;;;;18.12;89.45;98310.31;4887796;28;20222;-61
2022/10/06 09:36:59;;;;;;;6.00;4.37;;;;;;;18.15;87.63;98310.75;4928070;28;20982;-59
2022/10/06 09:39:32;;;;;;;5.90;3.80;;;;;;;18.28;85.31;98318.00;4904627;28;20238;-59
2022/10/06 09:42:07;;;;;;;4.57;4.17;;;;;;;17.83;85.60;98318.50;4930991;28;20429;-60
2022/10/06 09:44:43;;;;;;;4.83;3.80;;;;;;;17.67;86.68;98310.88;4928185;28;20210;-61
2022/10/06 09:47:39;;;;;;;4.50;4.13;;;;;;;17.68;86.07;98323.22;4931039;28;20285;-58
2022/10/06 09:50:23;;;;;;;4.40;4.07;;;;;;;17.54;88.27;98320.50;4807606;29;20259;-59
2022/10/06 09:53:15;;;;;;;4.00;3.60;;;;;;;17.14;90.20;98331.03;4849559;29;20218;-57
2022/10/06 09:55:51;;;;;;;4.13;3.83;;;;;;;17.01;94.45;98335.31;4823488;29;20924;-60
2022/10/06 09:58:23;;;;;;;8.10;6.87;;;;;;;17.04;92.62;98336.75;4846565;29;20219;-57
2022/10/06 10:00:56;;;;;;;5.57;4.30;;;;;;;16.57;94.54;98339.09;4847826;29;20283;-59
2022/10/06 10:03:26;;;;;;;6.00;4.27;;;;;;;16.51;97.31;98340.69;4820769;29;20242;-59
2022/10/06 10:05:55;;;;;;;6.07;4.30;;;;;;;16.35;99.92;98342.66;4837348;29;20217;-60
2022/10/06 10:08:25;;;;;;;5.00;4.00;;;;;;;16.05;100.00;98341.94;4843856;29;20237;-59
2022/10/06 10:13:56;;;;;;;4.67;3.77;;;;;;;15.74;100.00;98346.53;4843641;29;20579;-61
2022/10/06 10:16:25;;;;;;;3.73;3.53;;;;;;;16.03;100.00;98347.50;4845042;29;20223;-58
2022/10/06 10:18:53;;;;;;;6.13;3.93;;;;;;;16.52;100.00;98357.59;4810213;29;20748;-58
2022/10/06 10:21:24;;;;;;;3.83;3.53;;;;;;;16.59;100.00;98353.13;4846088;29;20235;-58
2022/10/06 10:23:55;;;;;;;4.33;3.93;;;;;;;16.61;100.00;98354.56;4769089;29;20495;-61
2022/10/06 10:26:31;;;;;;;3.80;3.50;;;;;;;16.43;100.00;98352.38;4898422;28;20769;-59
2022/10/06 10:29:29;;;;;;;5.77;3.37;;;;;;;16.54;100.00;98361.72;4901801;28;20842;-57
2022/10/06 10:32:08;;;;;;;4.40;4.00;;;;;;;16.36;100.00;98370.22;4928962;28;20248;-59
2022/10/06 10:35:07;;;;;;;3.67;3.37;;;;;;;15.98;100.00;98370.47;4927202;28;20395;-57
2022/10/06 10:37:41;;;;;;;4.60;3.67;;;;;;;15.97;100.00;98356.28;4892512;28;20214;-58
2022/10/06 10:40:15;;;;;;;3.40;3.20;;;;;;;16.18;100.00;98366.16;4928566;28;20304;-59
2022/10/06 10:42:47;;;;;;;4.50;3.10;;;;;;;16.00;100.00;98371.09;4925341;28;20225;-59
2022/10/06 10:45:22;;;;;;;3.43;3.13;;;;;;;15.65;100.00;98376.22;4908133;28;20220;-62
2022/10/06 10:47:50;;;;;;;3.27;3.07;;;;;;;15.53;100.00;98383.88;4930090;28;21159;-61
2022/10/06 10:50:24;;;;;;;3.53;3.20;;;;;;;15.42;100.00;98382.53;4931733;28;20221;-60
2022/10/06 10:52:56;;;;;;;4.07;3.60;;;;;;;15.67;100.00;98385.72;4930972;28;20209;-59
2022/10/06 10:55:28;;;;;;;4.00;3.60;;;;;;;15.98;100.00;98389.16;4890814;28;20652;-59
2022/10/06 10:57:59;;;;;;;5.40;4.37;;;;;;;16.08;100.00;98383.53;4930763;28;20417;-60
2022/10/06 11:00:34;;;;;;;3.90;3.70;;;;;;;15.99;100.00;98396.16;4907523;28;20687;-59
2022/10/06 11:03:02;;;;;;;3.83;3.63;;;;;;;16.13;100.00;98392.63;4931863;28;21032;-59
2022/10/06 11:05:41;;;;;;;3.40;3.10;;;;;;;16.22;100.00;98396.00;4931512;28;20214;-58
2022/10/06 11:08:15;;;;;;;3.50;3.30;;;;;;;16.22;100.00;98403.19;4932831;28;20706;-58
2022/10/06 11:10:48;;;;;;;2.83;2.63;;;;;;;16.53;100.00;98402.88;4885083;28;20584;-58
2022/10/06 11:13:22;;;;;;;3.13;2.83;;;;;;;16.33;100.00;98403.53;4933494;28;20804;-59
2022/10/06 11:15:59;;;;;;;3.03;2.73;;;;;;;16.53;100.00;98397.50;4903806;28;20221;-60
2022/10/06 11:18:37;;;;;;;3.00;2.80;;;;;;;16.81;100.00;98399.38;4932121;28;20547;-59
2022/10/06 11:21:10;;;;;;;2.90;2.70;;;;;;;17.11;100.00;98387.66;4932635;28;20779;-59
2022/10/06 11:23:47;;;;;;;6.47;3.00;;;;;;;17.24;100.00;98381.56;4928351;28;20833;-60
2022/10/06 11:26:26;;;;;;;4.07;2.93;;;;;;;17.04;99.83;98382.25;4886207;28;20768;-62
2022/10/06 11:28:58;;;;;;;3.20;2.90;;;;;;;17.39;99.39;98381.44;4930396;28;20308;-61
2022/10/06 11:31:33;;;;;;;3.57;3.00;;;;;;;17.63;94.02;98383.63;4906766;28;20233;-61
2022/10/06 11:34:02;;;;;;;2.93;2.73;;;;;;;17.82;89.26;98380.38;4930602;28;20292;-59
2022/10/06 11:36:38;;;;;;;3.17;2.50;;;;;;;18.21;89.54;98376.19;4930826;28;20733;-60
2022/10/06 11:39:15;;;;;;;3.00;2.70;;;;;;;18.32;86.01;98372.03;4931253;28;20209;-61
2022/10/06 11:41:48;;;;;;;3.50;2.13;;;;;;;17.93;85.79;98361.84;4884965;28;20868;-60
2022/10/06 11:44:21;;;;;;;1.87;1.87;;;;;;;17.39;87.46;98376.09;4931814;28;20214;-60
2022/10/06 11:46:53;;;;;;;2.33;2.23;;;;;;;17.07;88.95;98385.38;4902957;28;20233;-60
2022/10/06 11:49:50;;;;;;;5.50;2.67;;;;;;;16.70;91.82;98376.66;4931656;28;20225;-61
2022/10/06 11:52:45;;;;;;;1.93;1.83;;;;;;;16.24;93.92;98371.75;4931444;28;20537;-59
2022/10/06 11:55:19;;;;;;;2.07;1.90;;;;;;;16.40;91.44;98370.66;4930763;28;20206;-61
2022/10/06 11:58:21;;;;;;;1.77;1.47;;;;;;;16.33;91.08;98375.94;4891646;28;20382;-61
2022/10/06 12:01:50;;;;;;;1.50;1.40;;;;;;;16.17;93.08;98374.34;4811844;29;20267;-60